Time;durP1;ratioP1;P1;durP2;ratioP2;P2;SDS_P1;SDS_P2;PMS_P1;PMS_P2;Temp;Humidity;BMP_temperature;BMP_pressure;BME280_temperature;BME280_humidity;BME280_pressure;Samples;Min_cycle;Max_cycle;Signal;HPM_P1;HPM_P2
2022/10/21 00:01:07;;;;;;;34.28;21.25;;;12.40;99.90;;;;;;5132814;27;20042;-67
2022/10/21 00:03:34;;;;;;;37.80;22.25;;;12.40;99.90;;;;;;5135135;27;20041;-67
2022/10/21 00:06:00;;;;;;;33.15;20.40;;;12.40;99.90;;;;;;5135542;27;20031;-66
2022/10/21 00:08:25;;;;;;;38.35;21.27;;;12.40;99.90;;;;;;5135169;27;20406;-67
2022/10/21 00:11:00;;;;;;;37.15;21.65;;;12.40;99.90;;;;;;5117240;27;20047;-66
2022/10/21 00:13:27;;;;;;;35.92;22.02;;;12.40;99.90;;;;;;5135106;27;20046;-67
2022/10/21 00:16:01;;;;;;;39.35;21.75;;;12.40;99.90;;;;;;5135060;27;20050;-66
2022/10/21 00:18:27;;;;;;;36.35;22.27;;;12.40;99.90;;;;;;5118157;27;20043;-66
2022/10/21 00:20:53;;;;;;;37.45;21.60;;;12.40;99.90;;;;;;5136361;27;20118;-66
2022/10/21 00:23:19;;;;;;;36.67;21.52;;;12.40;99.90;;;;;;5118166;27;20510;-66
2022/10/21 00:25:45;;;;;;;40.80;22.02;;;12.40;99.90;;;;;;5136292;27;20058;-66
2022/10/21 00:28:10;;;;;;;35.05;21.10;;;12.30;99.90;;;;;;5134930;27;20047;-66
2022/10/21 00:30:41;;;;;;;35.90;21.75;;;12.30;99.90;;;;;;5134685;27;20043;-66
2022/10/21 00:33:06;;;;;;;38.33;21.48;;;12.30;99.90;;;;;;5135344;27;20043;-66
2022/10/21 00:35:33;;;;;;;34.75;21.35;;;12.30;99.90;;;;;;5134563;27;20472;-67
2022/10/21 00:37:59;;;;;;;34.75;21.15;;;12.30;99.90;;;;;;5117706;27;20096;-66
2022/10/21 00:40:24;;;;;;;43.60;22.23;;;12.30;99.90;;;;;;5117280;27;20039;-66
2022/10/21 00:42:50;;;;;;;46.03;23.70;;;12.30;99.90;;;;;;5115200;27;20047;-66
2022/10/21 00:45:22;;;;;;;37.58;21.95;;;12.30;99.90;;;;;;5117272;27;20045;-66
2022/10/21 00:48:08;;;;;;;40.38;21.85;;;12.20;99.90;;;;;;5117636;27;20478;-67
2022/10/21 00:50:42;;;;;;;40.42;23.15;;;12.20;99.90;;;;;;5135692;27;20042;-66
2022/10/21 00:53:12;;;;;;;41.25;21.60;;;12.20;99.90;;;;;;5135619;27;20039;-66
2022/10/21 00:55:47;;;;;;;39.97;22.52;;;12.10;99.90;;;;;;5134318;27;20035;-66
2022/10/21 00:58:15;;;;;;;38.67;21.83;;;12.10;99.90;;;;;;5134565;27;20118;-66
2022/10/21 01:00:41;;;;;;;40.72;21.20;;;12.10;99.90;;;;;;5134097;27;20043;-66
2022/10/21 01:03:07;;;;;;;42.17;23.77;;;12.10;99.90;;;;;;5135365;27;20046;-66
2022/10/21 01:05:36;;;;;;;40.28;22.35;;;12.10;99.90;;;;;;5134299;27;20035;-66
2022/10/21 01:08:01;;;;;;;46.20;24.27;;;12.00;99.90;;;;;;5134187;27;20067;-66
2022/10/21 01:10:28;;;;;;;39.60;21.98;;;12.10;99.90;;;;;;5133983;27;20602;-66
2022/10/21 01:13:02;;;;;;;43.78;24.13;;;12.10;99.90;;;;;;5131072;27;20075;-66
2022/10/21 01:15:59;;;;;;;43.95;23.60;;;12.00;99.90;;;;;;5116648;27;20099;-66
2022/10/21 01:18:43;;;;;;;42.40;23.30;;;12.00;99.90;;;;;;5133894;27;20036;-66
2022/10/21 01:21:37;;;;;;;41.88;23.02;;;12.00;99.90;;;;;;5135200;27;20093;-66
2022/10/21 01:24:17;;;;;;;35.22;22.10;;;12.10;99.90;;;;;;5135556;27;20042;-66
2022/10/21 01:27:01;;;;;;;43.45;24.02;;;12.10;99.90;;;;;;5135028;27;20047;-67
2022/10/21 01:29:42;;;;;;;46.55;23.75;;;12.10;99.90;;;;;;5133702;27;20403;-66
2022/10/21 01:32:24;;;;;;;43.92;24.95;;;12.20;99.90;;;;;;5134990;27;20043;-66
2022/10/21 01:35:07;;;;;;;46.35;23.88;;;12.20;99.90;;;;;;5133385;27;20055;-66
2022/10/21 01:37:58;;;;;;;43.25;23.50;;;12.30;99.90;;;;;;5134704;27;20069;-67
2022/10/21 01:44:29;;;;;;;44.35;24.73;;;12.40;99.90;;;;;;5133305;27;20042;-66
2022/10/21 01:47:05;;;;;;;44.45;23.85;;;12.40;99.90;;;;;;5133487;27;20100;-66
2022/10/21 01:50:00;;;;;;;43.25;23.58;;;12.50;99.90;;;;;;5133551;27;20039;-66
2022/10/21 01:52:25;;;;;;;49.45;25.08;;;12.50;99.90;;;;;;5118793;27;20054;-69
2022/10/21 01:55:02;;;;;;;43.65;23.38;;;12.50;99.90;;;;;;5134420;27;20122;-66
2022/10/21 01:57:34;;;;;;;45.33;25.20;;;12.50;99.90;;;;;;5133396;27;20108;-67
2022/10/21 02:00:01;;;;;;;50.60;24.77;;;12.60;99.90;;;;;;5133084;27;20085;-67
2022/10/21 02:02:29;;;;;;;44.20;24.88;;;12.60;99.90;;;;;;5134130;27;20047;-68
2022/10/21 02:05:00;;;;;;;50.83;25.98;;;12.70;99.90;;;;;;5133234;27;20108;-67
2022/10/21 02:07:26;;;;;;;45.00;25.17;;;12.70;99.90;;;;;;5132960;27;20039;-67
2022/10/21 02:09:52;;;;;;;46.15;25.25;;;12.70;99.90;;;;;;5132877;27;20046;-67
2022/10/21 02:12:19;;;;;;;45.60;25.70;;;12.70;99.90;;;;;;5131682;27;20043;-68
2022/10/21 02:14:49;;;;;;;50.15;25.98;;;12.80;99.90;;;;;;5132661;27;20047;-68
2022/10/21 02:17:20;;;;;;;45.13;25.80;;;12.80;99.90;;;;;;5133923;27;20115;-69
2022/10/21 02:19:45;;;;;;;;;;;12.90;99.90;;;;;;5133155;27;20525;-68
2022/10/21 02:22:16;;;;;;;45.83;25.05;;;12.90;99.90;;;;;;5133795;27;19919;-67
2022/10/21 02:24:51;;;;;;;48.28;24.02;;;12.90;99.90;;;;;;5133151;27;20049;-68
2022/10/21 02:27:18;;;;;;;44.35;22.70;;;12.90;99.90;;;;;;5115478;27;20104;-67
2022/10/21 02:29:47;;;;;;;41.88;21.10;;;13.00;99.90;;;;;;5115351;27;20046;-67
2022/10/21 02:32:30;;;;;;;48.42;23.05;;;13.10;99.90;;;;;;5115565;27;20126;-68
2022/10/21 02:35:08;;;;;;;42.15;21.80;;;13.10;99.90;;;;;;5145001;27;20110;-69
2022/10/21 02:37:53;;;;;;;43.03;21.08;;;13.20;99.90;;;;;;5135812;27;20554;-68
2022/10/21 02:40:39;;;;;;;42.25;22.35;;;13.30;99.90;;;;;;5135978;27;20398;-68
2022/10/21 02:43:37;;;;;;;43.75;20.65;;;13.40;99.90;;;;;;5151926;27;20394;-69
2022/10/21 02:46:11;;;;;;;43.70;20.45;;;13.40;99.90;;;;;;5116361;27;20047;-68
2022/10/21 02:48:39;;;;;;;36.80;18.55;;;13.50;99.90;;;;;;5135505;27;20050;-68
2022/10/21 02:51:06;;;;;;;43.92;20.65;;;13.50;99.90;;;;;;5135875;27;20069;-69
2022/10/21 02:53:33;;;;;;;42.58;21.35;;;13.50;99.90;;;;;;5135578;27;20114;-69
2022/10/21 02:55:59;;;;;;;40.35;21.02;;;13.50;99.90;;;;;;5135713;27;20397;-70
2022/10/21 02:58:25;;;;;;;40.58;21.30;;;13.60;99.90;;;;;;5135649;27;20047;-69
2022/10/21 03:00:51;;;;;;;34.47;19.77;;;13.60;99.90;;;;;;5153743;27;20398;-68
2022/10/21 03:03:17;;;;;;;38.78;19.95;;;13.60;99.90;;;;;;5154145;27;20031;-69
2022/10/21 03:05:43;;;;;;;40.78;22.25;;;13.60;99.90;;;;;;5154235;27;20083;-69
2022/10/21 03:08:08;;;;;;;38.95;21.88;;;13.60;99.90;;;;;;5154381;27;20077;-69
2022/10/21 03:10:34;;;;;;;39.60;22.15;;;13.60;99.90;;;;;;5153753;27;20394;-69
2022/10/21 03:13:00;;;;;;;45.30;23.02;;;13.60;99.90;;;;;;5132848;27;20039;-68
2022/10/21 03:15:26;;;;;;;40.97;22.63;;;13.60;99.90;;;;;;5135052;27;20043;-69
2022/10/21 03:17:51;;;;;;;42.38;22.60;;;13.60;99.90;;;;;;5135327;27;20047;-68
2022/10/21 03:20:17;;;;;;;39.33;21.30;;;13.60;99.90;;;;;;5153851;27;20394;-68
2022/10/21 03:22:43;;;;;;;37.72;21.67;;;13.60;99.90;;;;;;5134940;27;20039;-68
2022/10/21 03:25:10;;;;;;;40.92;22.67;;;13.50;99.90;;;;;;5135281;27;20042;-68
2022/10/21 03:27:36;;;;;;;42.65;22.52;;;13.60;99.90;;;;;;5134984;27;20035;-68
2022/10/21 03:30:03;;;;;;;40.75;22.13;;;13.50;99.90;;;;;;5135106;27;20114;-68
2022/10/21 03:32:29;;;;;;;44.83;23.58;;;13.50;99.90;;;;;;5135077;27;20041;-68
2022/10/21 03:34:54;;;;;;;46.72;24.08;;;13.50;99.90;;;;;;5135064;27;20047;-67
2022/10/21 03:37:20;;;;;;;44.65;23.52;;;13.50;99.90;;;;;;5139200;27;20455;-68
2022/10/21 03:39:46;;;;;;;49.08;23.92;;;13.40;99.90;;;;;;5157901;27;20133;-68
2022/10/21 03:42:12;;;;;;;47.40;24.13;;;13.40;99.90;;;;;;5155729;27;20097;-68
2022/10/21 03:44:37;;;;;;;45.20;24.90;;;13.40;99.90;;;;;;5157504;27;20035;-68
2022/10/21 03:47:03;;;;;;;47.55;25.25;;;13.40;99.90;;;;;;5139109;27;20053;-68
2022/10/21 03:49:29;;;;;;;52.97;26.23;;;13.50;99.90;;;;;;5157577;27;20042;-68
2022/10/21 03:51:55;;;;;;;47.85;24.55;;;13.50;99.90;;;;;;5157881;27;20039;-68
2022/10/21 03:54:20;;;;;;;52.63;26.75;;;13.50;99.90;;;;;;5157603;27;20043;-68
2022/10/21 03:56:46;;;;;;;57.25;27.35;;;13.50;99.90;;;;;;5138925;27;20046;-68
2022/10/21 03:59:12;;;;;;;52.58;26.50;;;13.50;99.90;;;;;;5157338;27;20039;-68
2022/10/21 04:01:38;;;;;;;61.05;28.52;;;13.50;99.90;;;;;;5157520;27;20042;-68
2022/10/21 04:04:03;;;;;;;58.03;26.55;;;13.50;99.90;;;;;;5121598;27;20122;-68
2022/10/21 04:06:29;;;;;;;59.25;26.15;;;13.50;99.90;;;;;;5157385;27;20162;-68
2022/10/21 04:08:55;;;;;;;56.40;26.65;;;13.50;99.90;;;;;;5138698;27;20375;-68
2022/10/21 04:11:21;;;;;;;72.72;28.02;;;13.40;99.90;;;;;;5136204;27;20082;-69
2022/10/21 04:13:46;;;;;;;47.20;23.63;;;13.40;99.90;;;;;;5138555;27;20035;-68
2022/10/21 04:16:18;;;;;;;56.35;25.80;;;13.30;99.90;;;;;;5121449;27;20038;-68
2022/10/21 04:18:44;;;;;;;59.30;25.75;;;13.30;99.90;;;;;;5157229;27;20047;-68
2022/10/21 04:21:10;;;;;;;58.08;24.83;;;13.20;99.90;;;;;;5157158;27;20589;-69
2022/10/21 04:23:36;;;;;;;52.20;27.38;;;13.20;99.90;;;;;;5157057;27;20050;-68
2022/10/21 04:26:03;;;;;;;51.72;24.80;;;13.20;99.90;;;;;;5157248;27;20023;-68
2022/10/21 04:28:29;;;;;;;53.22;26.10;;;13.20;99.90;;;;;;5138557;27;20038;-68
2022/10/21 04:30:55;;;;;;;53.15;25.05;;;13.20;99.90;;;;;;5138278;27;20444;-68
2022/10/21 04:33:20;;;;;;;50.60;26.23;;;13.20;99.90;;;;;;5138534;27;20091;-68
2022/10/21 04:35:46;;;;;;;56.58;25.77;;;13.20;99.90;;;;;;5156603;27;20050;-68
2022/10/21 04:38:12;;;;;;;64.35;29.02;;;13.30;99.90;;;;;;5121087;27;20055;-68
2022/10/21 04:40:38;;;;;;;58.85;27.08;;;13.30;99.90;;;;;;5120938;27;20126;-68
2022/10/21 04:43:03;;;;;;;62.42;27.45;;;13.30;99.90;;;;;;5135749;27;20035;-68
2022/10/21 04:45:29;;;;;;;58.60;27.02;;;13.40;99.90;;;;;;5137946;27;20039;-68
2022/10/21 04:47:55;;;;;;;54.63;26.65;;;13.40;99.90;;;;;;5137008;27;20095;-68
2022/10/21 04:50:21;;;;;;;64.05;27.25;;;13.30;99.90;;;;;;5156658;27;20071;-68
2022/10/21 04:52:46;;;;;;;61.97;27.10;;;13.30;99.90;;;;;;5120666;27;20103;-68
2022/10/21 04:55:12;;;;;;;64.15;27.95;;;13.20;99.90;;;;;;5156280;27;20046;-68
2022/10/21 04:57:39;;;;;;;59.28;27.83;;;13.20;99.90;;;;;;5137924;27;20049;-68
2022/10/21 05:00:06;;;;;;;58.80;27.65;;;13.20;99.90;;;;;;5137955;27;20038;-68
2022/10/21 05:02:32;;;;;;;54.83;26.30;;;13.20;99.90;;;;;;5137681;27;20103;-68
2022/10/21 05:04:58;;;;;;;69.05;30.55;;;13.30;99.90;;;;;;5120551;27;20126;-68
2022/10/21 05:07:24;;;;;;;67.03;31.05;;;13.30;99.90;;;;;;5120440;27;20080;-68
2022/10/21 05:09:49;;;;;;;65.57;28.83;;;13.30;99.90;;;;;;5120473;27;20117;-68
2022/10/21 05:12:15;;;;;;;75.35;30.95;;;13.30;99.90;;;;;;5153553;27;20042;-68
2022/10/21 05:14:41;;;;;;;62.53;29.33;;;13.30;99.90;;;;;;5156245;27;20038;-68
2022/10/21 05:17:07;;;;;;;62.75;30.38;;;13.30;99.90;;;;;;5156141;27;20444;-67
2022/10/21 05:19:32;;;;;;;62.00;29.70;;;13.20;99.90;;;;;;5156040;27;20052;-67
2022/10/21 05:21:58;;;;;;;71.65;30.33;;;13.20;99.90;;;;;;5137293;27;20046;-67
2022/10/21 05:24:24;;;;;;;76.57;30.63;;;13.20;99.90;;;;;;5137430;27;20431;-67
2022/10/21 05:26:50;;;;;;;63.25;28.65;;;13.20;99.90;;;;;;5137379;27;20525;-67
2022/10/21 05:29:16;;;;;;;62.72;28.50;;;13.10;99.90;;;;;;5155894;27;20034;-68
2022/10/21 05:31:42;;;;;;;67.68;29.08;;;13.10;99.90;;;;;;5137421;27;20070;-67
2022/10/21 05:34:08;;;;;;;65.18;29.00;;;13.00;99.90;;;;;;5155619;27;20414;-67
2022/10/21 05:36:34;;;;;;;62.72;27.20;;;12.90;99.90;;;;;;5136974;27;20501;-68
2022/10/21 05:39:00;;;;;;;64.07;29.08;;;13.00;99.90;;;;;;5137263;27;20126;-68
2022/10/21 05:41:25;;;;;;;67.57;29.95;;;12.90;99.90;;;;;;5153352;27;20296;-68
2022/10/21 05:43:51;;;;;;;69.57;29.25;;;12.90;99.90;;;;;;5137089;27;20478;-67
2022/10/21 05:46:17;;;;;;;71.35;30.60;;;12.90;99.90;;;;;;5119780;27;20087;-68
2022/10/21 05:48:43;;;;;;;67.20;29.90;;;12.90;99.90;;;;;;5155489;27;20038;-67
2022/10/21 05:51:08;;;;;;;64.22;29.48;;;12.90;99.90;;;;;;5155285;27;20050;-67
2022/10/21 05:53:34;;;;;;;77.18;31.48;;;12.80;99.90;;;;;;5136616;27;20039;-68
2022/10/21 05:56:05;;;;;;;66.85;29.45;;;12.80;99.90;;;;;;5155160;27;20037;-68
2022/10/21 05:58:32;;;;;;;67.03;29.42;;;12.90;99.90;;;;;;5136524;27;20047;-67
2022/10/21 06:00:59;;;;;;;66.90;30.83;;;12.90;99.90;;;;;;5136461;27;20042;-70
2022/10/21 06:03:28;;;;;;;69.30;30.15;;;12.90;99.90;;;;;;5155178;27;20394;-68
2022/10/21 06:05:56;;;;;;;62.97;29.05;;;12.90;99.90;;;;;;5155098;27;20098;-67
2022/10/21 06:08:21;;;;;;;63.95;29.17;;;12.90;99.90;;;;;;5154981;27;20034;-68
2022/10/21 06:10:47;;;;;;;60.33;27.77;;;12.90;99.90;;;;;;5136287;27;20054;-68
2022/10/21 06:13:13;;;;;;;68.90;30.60;;;13.00;99.90;;;;;;5116692;27;20043;-67
2022/10/21 06:15:39;;;;;;;70.28;30.20;;;12.90;99.90;;;;;;5119019;27;20039;-67
2022/10/21 06:18:04;;;;;;;63.30;30.52;;;12.90;99.90;;;;;;5136143;27;20043;-68
2022/10/21 06:20:30;;;;;;;64.72;29.88;;;12.90;99.90;;;;;;5136135;27;20042;-67
2022/10/21 06:22:58;;;;;;;65.43;29.02;;;12.90;99.90;;;;;;5135997;27;20126;-67
2022/10/21 06:25:24;;;;;;;58.78;27.25;;;12.90;99.90;;;;;;5135976;27;20066;-67
2022/10/21 06:27:51;;;;;;;62.13;29.38;;;12.90;99.90;;;;;;5136099;27;20311;-67
2022/10/21 06:30:18;;;;;;;54.35;25.45;;;12.90;99.90;;;;;;5119809;27;20034;-67
2022/10/21 06:32:43;;;;;;;58.55;27.25;;;12.90;99.90;;;;;;5154592;27;20035;-67
2022/10/21 06:35:09;;;;;;;53.63;26.10;;;12.90;99.90;;;;;;5132350;27;20078;-67
2022/10/21 06:37:35;;;;;;;54.85;26.98;;;12.90;99.90;;;;;;5133697;27;20407;-67
2022/10/21 06:40:03;;;;;;;55.50;25.88;;;13.00;99.90;;;;;;5133469;27;20043;-67
2022/10/21 06:42:29;;;;;;;57.67;26.08;;;13.00;99.90;;;;;;5112734;27;20104;-66
2022/10/21 06:44:55;;;;;;;54.05;26.88;;;13.00;99.90;;;;;;5115130;27;20039;-68
2022/10/21 06:47:21;;;;;;;57.15;27.95;;;13.00;99.90;;;;;;5115305;27;20058;-66
2022/10/21 06:49:46;;;;;;;54.70;26.55;;;12.90;99.90;;;;;;5133584;27;20031;-67
2022/10/21 06:52:12;;;;;;;56.17;28.45;;;13.00;99.90;;;;;;5115226;27;20553;-67
2022/10/21 06:54:38;;;;;;;52.33;25.48;;;12.90;99.90;;;;;;5133216;27;20502;-66
2022/10/21 06:57:04;;;;;;;52.40;26.85;;;12.90;99.90;;;;;;5133665;27;20122;-67
2022/10/21 06:59:30;;;;;;;56.65;26.20;;;12.90;99.90;;;;;;5133450;27;20039;-66
2022/10/21 07:01:55;;;;;;;56.03;27.95;;;12.90;99.90;;;;;;5114941;27;20085;-67
2022/10/21 07:04:21;;;;;;;54.85;25.42;;;12.90;99.90;;;;;;5114840;27;20519;-66
2022/10/21 07:06:48;;;;;;;48.10;24.90;;;12.90;99.90;;;;;;5114718;27;20112;-67
2022/10/21 07:09:14;;;;;;;59.35;27.27;;;12.90;99.90;;;;;;5114871;27;20400;-66
2022/10/21 07:11:40;;;;;;;56.25;25.15;;;12.90;99.90;;;;;;5130510;27;20035;-66
2022/10/21 07:14:06;;;;;;;57.97;27.08;;;12.90;99.90;;;;;;5115019;27;20106;-66
2022/10/21 07:16:37;;;;;;;57.45;25.63;;;12.90;99.90;;;;;;5133127;27;20046;-66
2022/10/21 07:19:04;;;;;;;46.00;23.88;;;12.90;99.90;;;;;;5133381;27;20120;-66
2022/10/21 07:21:30;;;;;;;51.50;24.25;;;12.90;99.90;;;;;;5114566;27;20039;-66
2022/10/21 07:23:58;;;;;;;45.38;23.63;;;12.90;99.90;;;;;;5114535;27;20487;-67
2022/10/21 07:26:25;;;;;;;48.20;23.10;;;12.90;99.90;;;;;;5114446;28;20122;-67
2022/10/21 07:28:51;;;;;;;51.10;23.90;;;12.90;99.90;;;;;;5132795;27;20035;-67
2022/10/21 07:31:20;;;;;;;44.45;22.77;;;12.90;99.90;;;;;;5132959;27;20118;-67
2022/10/21 07:33:46;;;;;;;44.22;23.10;;;12.90;99.90;;;;;;5132712;28;20035;-67
2022/10/21 07:36:21;;;;;;;50.97;23.73;;;12.90;99.90;;;;;;5114547;28;20130;-66
2022/10/21 07:38:48;;;;;;;47.33;23.90;;;12.90;99.90;;;;;;5114424;28;20093;-67
2022/10/21 07:41:19;;;;;;;41.78;22.52;;;13.00;99.90;;;;;;5130381;28;20082;-66
2022/10/21 07:43:45;;;;;;;46.25;22.92;;;12.90;99.90;;;;;;5132448;28;20092;-66
2022/10/21 07:46:11;;;;;;;42.08;22.92;;;13.00;99.90;;;;;;5132795;28;20039;-66
2022/10/21 07:48:37;;;;;;;43.53;21.70;;;13.00;99.90;;;;;;5097466;28;20502;-66
2022/10/21 07:51:08;;;;;;;41.40;21.02;;;13.00;99.90;;;;;;5153185;27;20035;-66
2022/10/21 07:53:34;;;;;;;42.10;21.13;;;13.10;99.90;;;;;;5129277;27;20401;-66
2022/10/21 07:56:14;;;;;;;39.33;22.02;;;13.10;99.90;;;;;;5134359;27;20034;-66
2022/10/21 07:58:39;;;;;;;41.28;21.33;;;13.10;99.90;;;;;;5114734;27;20452;-66
2022/10/21 08:01:07;;;;;;;36.97;21.55;;;13.10;99.90;;;;;;5134686;27;20110;-66
2022/10/21 08:03:33;;;;;;;40.00;19.88;;;13.20;99.90;;;;;;5134698;27;20513;-66
2022/10/21 08:05:59;;;;;;;34.97;19.33;;;13.20;99.90;;;;;;5153346;27;20169;-67
2022/10/21 08:08:25;;;;;;;32.45;20.10;;;13.20;99.90;;;;;;5134605;27;20171;-67
2022/10/21 08:10:53;;;;;;;32.38;19.00;;;13.20;99.90;;;;;;5134586;27;20494;-66
2022/10/21 08:13:18;;;;;;;33.45;19.10;;;13.20;99.90;;;;;;5132371;27;20046;-67
2022/10/21 08:15:46;;;;;;;32.97;19.50;;;13.20;99.90;;;;;;5134470;27;20394;-67
2022/10/21 08:18:12;;;;;;;33.80;19.00;;;13.30;99.90;;;;;;5152968;27;20112;-66
2022/10/21 08:20:40;;;;;;;30.27;18.50;;;13.30;99.90;;;;;;5153177;27;20045;-66
2022/10/21 08:23:06;;;;;;;32.22;18.20;;;13.30;99.90;;;;;;5155133;27;20027;-66
2022/10/21 08:25:32;;;;;;;35.92;19.70;;;13.40;99.90;;;;;;5138351;27;20081;-67
2022/10/21 08:27:57;;;;;;;30.30;18.85;;;13.40;99.90;;;;;;5156830;27;20070;-66
2022/10/21 08:30:28;;;;;;;28.77;17.48;;;13.50;99.90;;;;;;5120972;27;20039;-66
2022/10/21 08:32:55;;;;;;;27.88;17.08;;;13.60;99.90;;;;;;5121039;27;20035;-66
2022/10/21 08:35:21;;;;;;;28.17;16.60;;;13.70;99.90;;;;;;5137997;27;20054;-66
2022/10/21 08:37:48;;;;;;;26.73;16.13;;;13.70;99.90;;;;;;5156793;27;20102;-66
2022/10/21 08:40:15;;;;;;;27.27;15.10;;;13.80;99.90;;;;;;5120818;27;20042;-66
2022/10/21 08:42:43;;;;;;;23.00;14.30;;;13.90;99.90;;;;;;5154119;27;20061;-66
2022/10/21 08:45:32;;;;;;;22.42;14.18;;;14.00;99.90;;;;;;5156452;27;20042;-66
2022/10/21 08:48:02;;;;;;;23.42;13.77;;;14.10;99.90;;;;;;5138114;27;20034;-66
2022/10/21 08:50:35;;;;;;;22.60;14.05;;;14.30;99.90;;;;;;5138093;27;20039;-66
2022/10/21 08:53:15;;;;;;;18.85;12.52;;;14.40;99.90;;;;;;5137862;27;20042;-66
2022/10/21 08:55:43;;;;;;;20.58;11.85;;;14.70;99.90;;;;;;5156262;27;20122;-66
2022/10/21 08:58:21;;;;;;;16.60;12.18;;;14.90;99.90;;;;;;5137915;27;20463;-66
2022/10/21 09:00:53;;;;;;;16.60;11.25;;;15.10;99.90;;;;;;5137542;27;20042;-66
2022/10/21 09:03:58;;;;;;;16.15;12.02;;;15.20;99.90;;;;;;5137846;27;20042;-66
2022/10/21 09:06:38;;;;;;;18.10;11.85;;;15.20;99.90;;;;;;5120447;27;20064;-66
2022/10/21 09:09:26;;;;;;;16.00;11.93;;;15.20;99.90;;;;;;5137502;27;20494;-66
2022/10/21 09:12:06;;;;;;;19.92;12.55;;;15.20;99.90;;;;;;5139318;27;20047;-66
2022/10/21 09:14:56;;;;;;;19.05;11.95;;;15.10;99.90;;;;;;5155726;27;20053;-66
2022/10/21 09:17:40;;;;;;;16.77;12.48;;;15.10;99.90;;;;;;5137583;27;20477;-66
2022/10/21 09:20:35;;;;;;;18.80;12.30;;;15.10;99.90;;;;;;5137139;27;20042;-66
2022/10/21 09:23:33;;;;;;;20.48;12.27;;;15.00;99.90;;;;;;5155906;27;20034;-66
2022/10/21 09:26:02;;;;;;;19.05;12.27;;;15.00;99.90;;;;;;5155904;27;20039;-66
2022/10/21 09:28:29;;;;;;;20.65;12.98;;;15.00;99.90;;;;;;5137436;27;20038;-66
2022/10/21 09:30:59;;;;;;;24.20;13.13;;;15.00;99.90;;;;;;5137096;27;20043;-66
2022/10/21 09:33:30;;;;;;;21.05;12.43;;;15.00;99.90;;;;;;5155302;27;20117;-66
2022/10/21 09:36:11;;;;;;;20.17;11.63;;;15.00;99.90;;;;;;5136705;27;20050;-66
2022/10/21 09:38:52;;;;;;;20.08;12.05;;;15.00;99.90;;;;;;5155614;27;20070;-66
2022/10/21 09:41:22;;;;;;;18.45;11.85;;;15.00;99.90;;;;;;5152869;27;20416;-66
2022/10/21 09:43:48;;;;;;;14.93;10.63;;;15.00;99.90;;;;;;5137134;27;20073;-66
2022/10/21 09:46:15;;;;;;;15.52;10.63;;;15.00;99.90;;;;;;5155437;27;20045;-65
2022/10/21 09:48:53;;;;;;;17.15;11.20;;;15.10;99.90;;;;;;5155383;27;20170;-66
2022/10/21 09:51:27;;;;;;;17.05;11.30;;;15.10;99.90;;;;;;5155225;27;20517;-66
2022/10/21 09:53:56;;;;;;;21.83;11.57;;;15.10;99.90;;;;;;5155154;27;20122;-66
2022/10/21 09:56:37;;;;;;;16.30;9.82;;;15.20;99.90;;;;;;5155274;27;20042;-66
2022/10/21 09:59:08;;;;;;;16.70;10.80;;;15.20;99.90;;;;;;5136748;27;20045;-66
2022/10/21 10:01:36;;;;;;;15.85;10.18;;;15.20;99.90;;;;;;5136394;27;20087;-66
2022/10/21 10:04:22;;;;;;;17.25;10.32;;;15.30;99.90;;;;;;5154946;27;20070;-66
2022/10/21 10:06:49;;;;;;;14.13;10.20;;;15.30;99.90;;;;;;5154359;27;20047;-66
2022/10/21 10:09:16;;;;;;;16.17;9.88;;;15.30;99.90;;;;;;5155055;27;20031;-65
2022/10/21 10:11:52;;;;;;;18.23;9.85;;;15.40;99.90;;;;;;5152170;27;20046;-66
2022/10/21 10:14:34;;;;;;;16.38;9.23;;;15.50;99.90;;;;;;5154930;27;20034;-66
2022/10/21 10:17:27;;;;;;;13.40;8.63;;;15.60;99.90;;;;;;5136167;27;20037;-66
2022/10/21 10:20:02;;;;;;;14.32;8.90;;;15.70;99.90;;;;;;5136105;27;20494;-66
2022/10/21 10:22:36;;;;;;;14.38;8.18;;;15.70;99.90;;;;;;5135923;27;20046;-66
2022/10/21 10:25:25;;;;;;;13.35;9.02;;;15.70;99.90;;;;;;5135936;27;20038;-66
2022/10/21 10:27:55;;;;;;;14.75;8.55;;;15.70;99.90;;;;;;5154500;27;20042;-66
2022/10/21 10:30:23;;;;;;;12.50;8.60;;;15.70;99.90;;;;;;5136225;27;20049;-67
2022/10/21 10:32:51;;;;;;;13.10;8.18;;;15.70;99.90;;;;;;5154420;27;20072;-67
2022/10/21 10:35:34;;;;;;;14.52;8.98;;;15.80;99.90;;;;;;5154301;27;20131;-67
2022/10/21 10:38:02;;;;;;;15.93;8.65;;;15.80;99.90;;;;;;5135782;27;20078;-66
2022/10/21 10:40:40;;;;;;;14.75;7.97;;;15.90;99.90;;;;;;5154124;27;20038;-66
2022/10/21 10:43:22;;;;;;;13.10;7.30;;;15.90;99.90;;;;;;5133190;27;20440;-67
2022/10/21 10:45:55;;;;;;;16.25;8.32;;;15.90;99.90;;;;;;5134897;27;20035;-66
2022/10/21 10:48:44;;;;;;;16.08;9.00;;;15.90;99.90;;;;;;5135534;27;20034;-67
2022/10/21 10:51:33;;;;;;;12.23;7.75;;;15.90;99.90;;;;;;5154274;27;20415;-66
2022/10/21 10:54:16;;;;;;;19.13;7.87;;;15.80;99.90;;;;;;5135565;27;20115;-67
2022/10/21 10:57:16;;;;;;;12.55;7.65;;;15.80;99.90;;;;;;5135285;27;20121;-67
2022/10/21 10:59:41;;;;;;;10.10;6.88;;;15.80;99.90;;;;;;5135370;27;20529;-67
2022/10/21 11:02:13;;;;;;;13.13;6.55;;;15.90;99.90;;;;;;5135190;27;20047;-67
2022/10/21 11:04:54;;;;;;;15.27;7.35;;;15.90;99.90;;;;;;5135531;27;20034;-68
2022/10/21 11:07:36;;;;;;;11.77;6.13;;;15.90;99.90;;;;;;5154277;27;20046;-67
2022/10/21 11:10:12;;;;;;;13.45;6.13;;;15.90;99.90;;;;;;5153926;27;20041;-67
2022/10/21 11:12:37;;;;;;;11.32;6.47;;;15.90;99.90;;;;;;5133043;27;20102;-68
2022/10/21 11:15:12;;;;;;;10.68;6.95;;;15.90;99.90;;;;;;5118072;27;20035;-67
2022/10/21 11:17:40;;;;;;;11.18;6.55;;;15.90;99.90;;;;;;5135465;27;20455;-67
2022/10/21 11:20:14;;;;;;;10.60;6.60;;;16.00;99.90;;;;;;5135528;27;20053;-67
2022/10/21 11:22:40;;;;;;;10.88;6.32;;;16.00;99.90;;;;;;5135117;27;20077;-68
2022/10/21 11:25:14;;;;;;;10.88;5.97;;;16.00;99.90;;;;;;5134993;27;20084;-67
2022/10/21 11:28:22;;;;;;;12.10;5.93;;;16.10;99.90;;;;;;5118326;27;20047;-67
2022/10/21 11:31:06;;;;;;;10.45;5.75;;;16.10;99.90;;;;;;5117988;27;20035;-68
2022/10/21 11:33:53;;;;;;;10.52;6.93;;;16.30;99.90;;;;;;5135482;27;20088;-68
2022/10/21 11:36:25;;;;;;;12.43;6.35;;;16.30;99.90;;;;;;5112490;28;20116;-68
2022/10/21 11:39:12;;;;;;;10.07;5.90;;;16.40;99.90;;;;;;5111095;28;20127;-67
2022/10/21 11:41:46;;;;;;;10.80;5.65;;;16.40;99.90;;;;;;5091723;28;20079;-68
2022/10/21 11:45:10;;;;;;;10.05;5.47;;;16.40;99.90;;;;;;5094041;28;20036;-67
2022/10/21 11:47:49;;;;;;;9.82;5.57;;;16.40;99.90;;;;;;5052537;28;20044;-67
2022/10/21 11:50:22;;;;;;;10.98;6.50;;;16.40;99.90;;;;;;5052443;28;20049;-68
2022/10/21 11:52:56;;;;;;;13.20;7.30;;;16.40;99.90;;;;;;5086258;28;20043;-67
2022/10/21 11:55:31;;;;;;;14.00;7.15;;;16.30;99.90;;;;;;5112348;28;20044;-68
2022/10/21 11:58:14;;;;;;;11.68;6.82;;;16.30;99.90;;;;;;5097614;28;20368;-68
2022/10/21 12:01:05;;;;;;;13.00;6.28;;;16.40;99.90;;;;;;5098110;28;20464;-67
2022/10/21 12:04:06;;;;;;;10.48;6.20;;;16.40;99.90;;;;;;5116375;28;20046;-69
2022/10/21 12:06:41;;;;;;;10.82;6.47;;;16.40;99.90;;;;;;5091231;28;20131;-68
2022/10/21 12:09:23;;;;;;;12.52;6.70;;;16.40;99.90;;;;;;5114869;28;20092;-68
2022/10/21 12:11:54;;;;;;;9.57;6.63;;;16.40;99.90;;;;;;5113535;28;20047;-67
2022/10/21 12:14:37;;;;;;;10.80;6.25;;;16.50;99.90;;;;;;5116130;28;20105;-67
2022/10/21 12:17:09;;;;;;;14.18;6.63;;;16.50;99.90;;;;;;5115868;28;20562;-68
2022/10/21 12:19:35;;;;;;;9.00;5.93;;;16.50;99.90;;;;;;5097675;28;20075;-68
2022/10/21 12:22:02;;;;;;;11.52;6.72;;;16.50;99.90;;;;;;5114203;28;20043;-69
2022/10/21 12:24:40;;;;;;;12.95;6.88;;;16.50;99.90;;;;;;5097702;28;20043;-68
2022/10/21 12:27:27;;;;;;;15.30;6.72;;;16.50;99.90;;;;;;5097407;28;20123;-68
2022/10/21 12:30:14;;;;;;;10.52;6.40;;;16.50;99.90;;;;;;5114597;28;20036;-69
2022/10/21 12:32:47;;;;;;;9.55;6.25;;;16.60;99.90;;;;;;5114533;28;20043;-68
2022/10/21 12:35:40;;;;;;;13.60;6.15;;;16.60;99.90;;;;;;5108479;27;20086;-69
2022/10/21 12:38:36;;;;;;;13.50;6.32;;;16.70;99.90;;;;;;5135088;27;20433;-68
2022/10/21 12:41:20;;;;;;;8.35;5.72;;;16.80;99.90;;;;;;5134654;27;20051;-68
2022/10/21 12:43:55;;;;;;;10.27;6.15;;;16.90;99.90;;;;;;5100646;27;20453;-69
2022/10/21 12:46:32;;;;;;;11.00;5.88;;;17.10;99.90;;;;;;5117671;27;20566;-69
2022/10/21 12:49:02;;;;;;;12.90;6.00;;;17.30;99.90;;;;;;5135910;27;20035;-69
2022/10/21 12:51:30;;;;;;;8.60;5.53;;;17.50;99.90;;;;;;5117379;27;20499;-68
2022/10/21 12:54:04;;;;;;;12.15;6.57;;;17.50;99.90;;;;;;5117377;27;20047;-68
2022/10/21 12:56:32;;;;;;;11.98;5.72;;;17.60;99.90;;;;;;5117380;27;20255;-69